sensor_id;sensor_type;location;lat;lon;timestamp;P1;durP1;ratioP1;P2;durP2;ratioP2
26337;SDS011;14050;50.950;4.460;2023-04-28T00:01:33;29.23;;;17.43;;
26337;SDS011;14050;50.950;4.460;2023-04-28T00:06:34;30.80;;;17.75;;
26337;SDS011;14050;50.950;4.460;2023-04-28T00:11:34;25.63;;;17.57;;
26337;SDS011;14050;50.950;4.460;2023-04-28T00:16:34;34.40;;;19.23;;
26337;SDS011;14050;50.950;4.460;2023-04-28T00:21:35;32.10;;;21.10;;
26337;SDS011;14050;50.950;4.460;2023-04-28T00:26:35;30.52;;;20.75;;
26337;SDS011;14050;50.950;4.460;2023-04-28T00:31:36;31.80;;;19.83;;
26337;SDS011;14050;50.950;4.460;2023-04-28T00:36:36;33.03;;;20.33;;
26337;SDS011;14050;50.950;4.460;2023-04-28T00:41:36;27.73;;;19.73;;
26337;SDS011;14050;50.950;4.460;2023-04-28T00:46:37;31.43;;;19.63;;
26337;SDS011;14050;50.950;4.460;2023-04-28T00:51:37;29.37;;;20.40;;
26337;SDS011;14050;50.950;4.460;2023-04-28T00:56:37;31.57;;;21.07;;
26337;SDS011;14050;50.950;4.460;2023-04-28T01:01:38;41.43;;;21.10;;
26337;SDS011;14050;50.950;4.460;2023-04-28T01:06:38;32.77;;;21.20;;
26337;SDS011;14050;50.950;4.460;2023-04-28T01:11:39;32.53;;;21.58;;
26337;SDS011;14050;50.950;4.460;2023-04-28T01:16:40;32.22;;;21.15;;
26337;SDS011;14050;50.950;4.460;2023-04-28T01:21:40;37.42;;;21.52;;
26337;SDS011;14050;50.950;4.460;2023-04-28T01:26:41;32.55;;;21.35;;
26337;SDS011;14050;50.950;4.460;2023-04-28T01:31:41;30.83;;;21.30;;
26337;SDS011;14050;50.950;4.460;2023-04-28T01:36:41;29.40;;;19.17;;
26337;SDS011;14050;50.950;4.460;2023-04-28T01:41:42;29.50;;;19.67;;
26337;SDS011;14050;50.950;4.460;2023-04-28T01:46:42;28.73;;;21.20;;
26337;SDS011;14050;50.950;4.460;2023-04-28T01:51:42;29.57;;;20.20;;
26337;SDS011;14050;50.950;4.460;2023-04-28T01:56:43;36.33;;;23.13;;
26337;SDS011;14050;50.950;4.460;2023-04-28T02:01:43;33.73;;;21.97;;
26337;SDS011;14050;50.950;4.460;2023-04-28T02:06:43;38.77;;;22.97;;
26337;SDS011;14050;50.950;4.460;2023-04-28T02:11:44;37.00;;;23.85;;
26337;SDS011;14050;50.950;4.460;2023-04-28T02:16:44;38.95;;;25.60;;
26337;SDS011;14050;50.950;4.460;2023-04-28T02:21:44;43.20;;;25.50;;
26337;SDS011;14050;50.950;4.460;2023-04-28T02:26:45;44.92;;;24.48;;
26337;SDS011;14050;50.950;4.460;2023-04-28T02:31:45;42.23;;;27.43;;
26337;SDS011;14050;50.950;4.460;2023-04-28T02:36:45;37.55;;;25.65;;
26337;SDS011;14050;50.950;4.460;2023-04-28T02:41:47;37.25;;;23.85;;
26337;SDS011;14050;50.950;4.460;2023-04-28T02:46:47;43.93;;;24.20;;
26337;SDS011;14050;50.950;4.460;2023-04-28T02:51:48;43.60;;;25.30;;
26337;SDS011;14050;50.950;4.460;2023-04-28T02:56:48;38.63;;;24.00;;
26337;SDS011;14050;50.950;4.460;2023-04-28T03:01:48;37.35;;;25.55;;
26337;SDS011;14050;50.950;4.460;2023-04-28T03:06:49;38.97;;;24.65;;
26337;SDS011;14050;50.950;4.460;2023-04-28T03:11:49;46.83;;;28.20;;
26337;SDS011;14050;50.950;4.460;2023-04-28T03:16:49;37.77;;;26.07;;
26337;SDS011;14050;50.950;4.460;2023-04-28T03:21:50;42.40;;;27.45;;
26337;SDS011;14050;50.950;4.460;2023-04-28T03:26:50;42.58;;;27.63;;
26337;SDS011;14050;50.950;4.460;2023-04-28T03:31:50;47.10;;;30.30;;
26337;SDS011;14050;50.950;4.460;2023-04-28T03:36:51;52.63;;;30.53;;
26337;SDS011;14050;50.950;4.460;2023-04-28T03:41:51;41.70;;;29.43;;
26337;SDS011;14050;50.950;4.460;2023-04-28T03:46:51;44.28;;;28.77;;
26337;SDS011;14050;50.950;4.460;2023-04-28T03:51:52;43.70;;;29.97;;
26337;SDS011;14050;50.950;4.460;2023-04-28T03:56:52;52.37;;;31.87;;
26337;SDS011;14050;50.950;4.460;2023-04-28T04:01:52;41.63;;;29.43;;
26337;SDS011;14050;50.950;4.460;2023-04-28T04:06:53;45.87;;;30.13;;
26337;SDS011;14050;50.950;4.460;2023-04-28T04:11:54;45.13;;;30.15;;
26337;SDS011;14050;50.950;4.460;2023-04-28T04:16:54;45.88;;;30.38;;
26337;SDS011;14050;50.950;4.460;2023-04-28T04:21:55;50.60;;;32.60;;
26337;SDS011;14050;50.950;4.460;2023-04-28T04:26:55;53.67;;;33.03;;
26337;SDS011;14050;50.950;4.460;2023-04-28T04:31:55;51.70;;;33.70;;
26337;SDS011;14050;50.950;4.460;2023-04-28T04:36:56;53.75;;;35.33;;
26337;SDS011;14050;50.950;4.460;2023-04-28T04:41:57;55.53;;;35.55;;
26337;SDS011;14050;50.950;4.460;2023-04-28T04:46:57;57.38;;;35.45;;
26337;SDS011;14050;50.950;4.460;2023-04-28T04:51:58;52.63;;;34.42;;
26337;SDS011;14050;50.950;4.460;2023-04-28T04:56:58;53.25;;;33.67;;
26337;SDS011;14050;50.950;4.460;2023-04-28T05:01:58;54.38;;;36.58;;
26337;SDS011;14050;50.950;4.460;2023-04-28T05:06:59;48.37;;;34.93;;
26337;SDS011;14050;50.950;4.460;2023-04-28T05:11:59;52.47;;;35.50;;
26337;SDS011;14050;50.950;4.460;2023-04-28T05:17:03;61.35;;;37.65;;
26337;SDS011;14050;50.950;4.460;2023-04-28T05:22:03;52.88;;;35.53;;
26337;SDS011;14050;50.950;4.460;2023-04-28T05:27:03;54.90;;;36.13;;
26337;SDS011;14050;50.950;4.460;2023-04-28T05:32:04;50.67;;;37.35;;
26337;SDS011;14050;50.950;4.460;2023-04-28T05:37:04;47.45;;;33.60;;
26337;SDS011;14050;50.950;4.460;2023-04-28T05:42:04;58.30;;;35.20;;
26337;SDS011;14050;50.950;4.460;2023-04-28T05:47:05;46.78;;;34.05;;
26337;SDS011;14050;50.950;4.460;2023-04-28T05:52:05;57.23;;;39.17;;
26337;SDS011;14050;50.950;4.460;2023-04-28T05:57:05;58.80;;;38.20;;
26337;SDS011;14050;50.950;4.460;2023-04-28T06:02:06;52.20;;;36.20;;
26337;SDS011;14050;50.950;4.460;2023-04-28T06:07:06;57.27;;;38.70;;
26337;SDS011;14050;50.950;4.460;2023-04-28T06:12:07;63.45;;;40.35;;
26337;SDS011;14050;50.950;4.460;2023-04-28T06:17:07;62.23;;;38.30;;
26337;SDS011;14050;50.950;4.460;2023-04-28T06:22:07;57.33;;;39.20;;
26337;SDS011;14050;50.950;4.460;2023-04-28T06:27:08;71.30;;;45.35;;
26337;SDS011;14050;50.950;4.460;2023-04-28T06:32:08;63.33;;;41.20;;
26337;SDS011;14050;50.950;4.460;2023-04-28T06:37:08;63.03;;;42.53;;
26337;SDS011;14050;50.950;4.460;2023-04-28T06:42:09;59.22;;;41.33;;
26337;SDS011;14050;50.950;4.460;2023-04-28T06:47:09;71.30;;;44.05;;
26337;SDS011;14050;50.950;4.460;2023-04-28T06:52:10;60.70;;;39.15;;
26337;SDS011;14050;50.950;4.460;2023-04-28T06:57:10;56.43;;;34.63;;
26337;SDS011;14050;50.950;4.460;2023-04-28T07:02:11;48.30;;;30.40;;
26337;SDS011;14050;50.950;4.460;2023-04-28T07:07:11;37.15;;;23.70;;
26337;SDS011;14050;50.950;4.460;2023-04-28T07:12:12;17.73;;;12.25;;
26337;SDS011;14050;50.950;4.460;2023-04-28T07:17:12;13.63;;;10.23;;
26337;SDS011;14050;50.950;4.460;2023-04-28T07:22:12;12.97;;;9.73;;
26337;SDS011;14050;50.950;4.460;2023-04-28T07:27:13;13.02;;;9.65;;
26337;SDS011;14050;50.950;4.460;2023-04-28T07:32:13;12.82;;;9.00;;
26337;SDS011;14050;50.950;4.460;2023-04-28T07:37:14;9.97;;;7.50;;
26337;SDS011;14050;50.950;4.460;2023-04-28T07:42:14;8.82;;;6.13;;
26337;SDS011;14050;50.950;4.460;2023-04-28T07:47:14;7.28;;;5.38;;
26337;SDS011;14050;50.950;4.460;2023-04-28T07:52:15;5.07;;;4.43;;
26337;SDS011;14050;50.950;4.460;2023-04-28T07:57:15;6.20;;;4.13;;
26337;SDS011;14050;50.950;4.460;2023-04-28T08:02:17;5.40;;;3.70;;
26337;SDS011;14050;50.950;4.460;2023-04-28T08:07:19;6.82;;;3.10;;
26337;SDS011;14050;50.950;4.460;2023-04-28T08:12:20;4.85;;;2.60;;
26337;SDS011;14050;50.950;4.460;2023-04-28T08:17:20;5.20;;;2.35;;
26337;SDS011;14050;50.950;4.460;2023-04-28T08:22:21;3.20;;;1.90;;
26337;SDS011;14050;50.950;4.460;2023-04-28T08:27:21;2.38;;;2.08;;
26337;SDS011;14050;50.950;4.460;2023-04-28T08:32:22;10.50;;;2.03;;
26337;SDS011;14050;50.950;4.460;2023-04-28T08:37:23;2.07;;;1.60;;
26337;SDS011;14050;50.950;4.460;2023-04-28T08:42:24;8.85;;;1.50;;
26337;SDS011;14050;50.950;4.460;2023-04-28T08:47:34;1.83;;;1.30;;
26337;SDS011;14050;50.950;4.460;2023-04-28T08:52:35;2.00;;;1.52;;
26337;SDS011;14050;50.950;4.460;2023-04-28T08:57:48;2.42;;;1.90;;
26337;SDS011;14050;50.950;4.460;2023-04-28T09:02:50;2.45;;;1.50;;
26337;SDS011;14050;50.950;4.460;2023-04-28T09:07:50;4.60;;;1.55;;
26337;SDS011;14050;50.950;4.460;2023-04-28T09:12:51;4.60;;;1.10;;
26337;SDS011;14050;50.950;4.460;2023-04-28T09:17:52;2.90;;;1.08;;
26337;SDS011;14050;50.950;4.460;2023-04-28T09:22:53;3.67;;;0.97;;
26337;SDS011;14050;50.950;4.460;2023-04-28T09:27:54;1.25;;;0.88;;
26337;SDS011;14050;50.950;4.460;2023-04-28T09:33:03;1.70;;;0.70;;
26337;SDS011;14050;50.950;4.460;2023-04-28T09:38:04;7.10;;;0.98;;
26337;SDS011;14050;50.950;4.460;2023-04-28T09:43:05;5.67;;;0.63;;
26337;SDS011;14050;50.950;4.460;2023-04-28T09:48:28;2.78;;;0.60;;
26337;SDS011;14050;50.950;4.460;2023-04-28T09:53:29;2.03;;;1.15;;
26337;SDS011;14050;50.950;4.460;2023-04-28T09:58:30;0.98;;;0.43;;
26337;SDS011;14050;50.950;4.460;2023-04-28T10:03:31;3.20;;;0.60;;
26337;SDS011;14050;50.950;4.460;2023-04-28T10:08:32;2.10;;;0.57;;
26337;SDS011;14050;50.950;4.460;2023-04-28T10:13:33;2.43;;;0.47;;
26337;SDS011;14050;50.950;4.460;2023-04-28T10:18:33;3.95;;;0.52;;
26337;SDS011;14050;50.950;4.460;2023-04-28T10:23:46;5.55;;;0.70;;
26337;SDS011;14050;50.950;4.460;2023-04-28T10:28:50;2.92;;;0.50;;
26337;SDS011;14050;50.950;4.460;2023-04-28T10:33:51;4.10;;;0.60;;
26337;SDS011;14050;50.950;4.460;2023-04-28T10:39:24;2.08;;;0.75;;
26337;SDS011;14050;50.950;4.460;2023-04-28T11:00:28;1.98;;;1.02;;
26337;SDS011;14050;50.950;4.460;2023-04-28T11:05:28;5.18;;;0.90;;
26337;SDS011;14050;50.950;4.460;2023-04-28T11:16:01;1.55;;;1.08;;
26337;SDS011;14050;50.950;4.460;2023-04-28T11:21:01;2.50;;;1.02;;
26337;SDS011;14050;50.950;4.460;2023-04-28T11:26:02;5.80;;;1.10;;
26337;SDS011;14050;50.950;4.460;2023-04-28T11:31:09;2.47;;;0.80;;
26337;SDS011;14050;50.950;4.460;2023-04-28T11:36:23;2.08;;;1.25;;
26337;SDS011;14050;50.950;4.460;2023-04-28T11:41:23;2.85;;;1.73;;
26337;SDS011;14050;50.950;4.460;2023-04-28T11:46:24;4.80;;;1.83;;
26337;SDS011;14050;50.950;4.460;2023-04-28T11:51:35;3.85;;;1.50;;
26337;SDS011;14050;50.950;4.460;2023-04-28T11:56:39;4.15;;;1.50;;
26337;SDS011;14050;50.950;4.460;2023-04-28T12:01:53;3.75;;;1.90;;
26337;SDS011;14050;50.950;4.460;2023-04-28T12:06:57;4.93;;;1.20;;
26337;SDS011;14050;50.950;4.460;2023-04-28T12:11:59;4.72;;;1.08;;
26337;SDS011;14050;50.950;4.460;2023-04-28T12:17:01;3.33;;;1.13;;
26337;SDS011;14050;50.950;4.460;2023-04-28T12:22:03;3.70;;;1.33;;
26337;SDS011;14050;50.950;4.460;2023-04-28T12:27:13;2.08;;;1.13;;
26337;SDS011;14050;50.950;4.460;2023-04-28T12:32:15;2.90;;;1.45;;
26337;SDS011;14050;50.950;4.460;2023-04-28T12:37:17;3.45;;;1.20;;
26337;SDS011;14050;50.950;4.460;2023-04-28T12:42:17;2.83;;;1.10;;
26337;SDS011;14050;50.950;4.460;2023-04-28T12:47:18;2.00;;;1.03;;
26337;SDS011;14050;50.950;4.460;2023-04-28T12:52:18;1.43;;;1.00;;
26337;SDS011;14050;50.950;4.460;2023-04-28T12:57:19;3.10;;;1.33;;
26337;SDS011;14050;50.950;4.460;2023-04-28T13:02:19;3.20;;;1.63;;
26337;SDS011;14050;50.950;4.460;2023-04-28T13:07:19;2.40;;;1.52;;
26337;SDS011;14050;50.950;4.460;2023-04-28T13:12:21;2.75;;;1.50;;
26337;SDS011;14050;50.950;4.460;2023-04-28T13:17:21;2.90;;;1.40;;
26337;SDS011;14050;50.950;4.460;2023-04-28T13:22:22;3.00;;;1.47;;
26337;SDS011;14050;50.950;4.460;2023-04-28T13:27:22;3.78;;;1.60;;
26337;SDS011;14050;50.950;4.460;2023-04-28T13:32:23;3.17;;;2.00;;
26337;SDS011;14050;50.950;4.460;2023-04-28T13:37:24;1.90;;;1.75;;
26337;SDS011;14050;50.950;4.460;2023-04-28T13:42:24;4.07;;;2.07;;
26337;SDS011;14050;50.950;4.460;2023-04-28T13:47:26;3.85;;;1.80;;
26337;SDS011;14050;50.950;4.460;2023-04-28T13:52:27;4.30;;;2.33;;
26337;SDS011;14050;50.950;4.460;2023-04-28T13:57:27;3.00;;;1.83;;
26337;SDS011;14050;50.950;4.460;2023-04-28T14:02:27;4.07;;;1.80;;
26337;SDS011;14050;50.950;4.460;2023-04-28T14:07:28;5.28;;;2.00;;
26337;SDS011;14050;50.950;4.460;2023-04-28T14:12:28;3.80;;;1.85;;
26337;SDS011;14050;50.950;4.460;2023-04-28T14:17:29;5.88;;;1.80;;
26337;SDS011;14050;50.950;4.460;2023-04-28T14:22:29;4.32;;;2.40;;
26337;SDS011;14050;50.950;4.460;2023-04-28T14:27:30;5.15;;;2.03;;
26337;SDS011;14050;50.950;4.460;2023-04-28T14:32:30;3.50;;;2.28;;
26337;SDS011;14050;50.950;4.460;2023-04-28T14:37:31;3.50;;;2.47;;
26337;SDS011;14050;50.950;4.460;2023-04-28T14:42:32;2.83;;;1.75;;
26337;SDS011;14050;50.950;4.460;2023-04-28T14:47:35;7.90;;;1.95;;
26337;SDS011;14050;50.950;4.460;2023-04-28T14:52:36;3.55;;;1.80;;
26337;SDS011;14050;50.950;4.460;2023-04-28T14:57:37;2.58;;;1.75;;
26337;SDS011;14050;50.950;4.460;2023-04-28T15:02:37;3.55;;;1.80;;
26337;SDS011;14050;50.950;4.460;2023-04-28T15:07:38;2.50;;;1.60;;
26337;SDS011;14050;50.950;4.460;2023-04-28T15:12:39;4.68;;;1.48;;
26337;SDS011;14050;50.950;4.460;2023-04-28T15:17:39;2.65;;;1.60;;
26337;SDS011;14050;50.950;4.460;2023-04-28T15:22:40;2.80;;;1.50;;
26337;SDS011;14050;50.950;4.460;2023-04-28T15:27:43;4.47;;;1.27;;
26337;SDS011;14050;50.950;4.460;2023-04-28T15:32:43;7.67;;;1.40;;
26337;SDS011;14050;50.950;4.460;2023-04-28T15:37:47;3.00;;;1.20;;
26337;SDS011;14050;50.950;4.460;2023-04-28T15:42:49;2.80;;;1.80;;
26337;SDS011;14050;50.950;4.460;2023-04-28T15:47:51;1.52;;;0.90;;
26337;SDS011;14050;50.950;4.460;2023-04-28T15:52:53;1.73;;;1.00;;
26337;SDS011;14050;50.950;4.460;2023-04-28T15:57:54;2.63;;;0.90;;
26337;SDS011;14050;50.950;4.460;2023-04-28T16:02:55;8.70;;;1.30;;
26337;SDS011;14050;50.950;4.460;2023-04-28T16:07:55;3.90;;;1.10;;
26337;SDS011;14050;50.950;4.460;2023-04-28T16:12:56;2.90;;;1.30;;
26337;SDS011;14050;50.950;4.460;2023-04-28T16:17:57;6.75;;;1.40;;
26337;SDS011;14050;50.950;4.460;2023-04-28T16:22:57;5.47;;;1.20;;
26337;SDS011;14050;50.950;4.460;2023-04-28T16:27:58;3.27;;;1.00;;
26337;SDS011;14050;50.950;4.460;2023-04-28T16:32:58;5.75;;;1.10;;
26337;SDS011;14050;50.950;4.460;2023-04-28T16:37:59;6.20;;;1.20;;
26337;SDS011;14050;50.950;4.460;2023-04-28T16:42:59;3.92;;;1.20;;
26337;SDS011;14050;50.950;4.460;2023-04-28T16:47:59;1.27;;;0.80;;
26337;SDS011;14050;50.950;4.460;2023-04-28T16:53:00;2.10;;;0.93;;
26337;SDS011;14050;50.950;4.460;2023-04-28T16:58:00;3.15;;;1.10;;
26337;SDS011;14050;50.950;4.460;2023-04-28T17:03:00;2.30;;;1.20;;
26337;SDS011;14050;50.950;4.460;2023-04-28T17:08:01;2.85;;;1.20;;
26337;SDS011;14050;50.950;4.460;2023-04-28T17:13:01;2.92;;;1.40;;
26337;SDS011;14050;50.950;4.460;2023-04-28T17:18:02;2.10;;;1.35;;
26337;SDS011;14050;50.950;4.460;2023-04-28T17:23:02;2.70;;;1.40;;
26337;SDS011;14050;50.950;4.460;2023-04-28T17:28:02;4.75;;;1.55;;
26337;SDS011;14050;50.950;4.460;2023-04-28T17:33:03;2.43;;;1.73;;
26337;SDS011;14050;50.950;4.460;2023-04-28T17:38:03;5.75;;;1.90;;
26337;SDS011;14050;50.950;4.460;2023-04-28T17:43:05;4.68;;;2.45;;
26337;SDS011;14050;50.950;4.460;2023-04-28T17:48:06;4.78;;;1.80;;
26337;SDS011;14050;50.950;4.460;2023-04-28T17:53:06;7.00;;;2.30;;
26337;SDS011;14050;50.950;4.460;2023-04-28T17:58:07;5.82;;;2.60;;
26337;SDS011;14050;50.950;4.460;2023-04-28T18:03:07;5.83;;;3.10;;
26337;SDS011;14050;50.950;4.460;2023-04-28T18:08:07;5.83;;;3.40;;
26337;SDS011;14050;50.950;4.460;2023-04-28T18:13:08;7.55;;;4.10;;
26337;SDS011;14050;50.950;4.460;2023-04-28T18:18:09;7.88;;;4.72;;
26337;SDS011;14050;50.950;4.460;2023-04-28T18:23:10;7.63;;;5.20;;
26337;SDS011;14050;50.950;4.460;2023-04-28T18:28:10;13.23;;;5.80;;
26337;SDS011;14050;50.950;4.460;2023-04-28T18:33:10;10.47;;;5.47;;
26337;SDS011;14050;50.950;4.460;2023-04-28T18:38:11;13.07;;;6.33;;
26337;SDS011;14050;50.950;4.460;2023-04-28T18:43:11;14.70;;;7.15;;
26337;SDS011;14050;50.950;4.460;2023-04-28T18:48:12;10.93;;;6.32;;
26337;SDS011;14050;50.950;4.460;2023-04-28T18:53:12;10.43;;;7.63;;
26337;SDS011;14050;50.950;4.460;2023-04-28T18:58:12;10.40;;;7.10;;
26337;SDS011;14050;50.950;4.460;2023-04-28T19:03:14;10.57;;;7.90;;
26337;SDS011;14050;50.950;4.460;2023-04-28T19:08:15;14.37;;;9.23;;
26337;SDS011;14050;50.950;4.460;2023-04-28T19:13:15;12.70;;;9.05;;
26337;SDS011;14050;50.950;4.460;2023-04-28T19:18:16;13.70;;;9.95;;
26337;SDS011;14050;50.950;4.460;2023-04-28T19:23:16;17.38;;;11.35;;
26337;SDS011;14050;50.950;4.460;2023-04-28T19:28:17;18.77;;;11.57;;
26337;SDS011;14050;50.950;4.460;2023-04-28T19:33:17;14.50;;;11.20;;
26337;SDS011;14050;50.950;4.460;2023-04-28T19:38:17;16.42;;;13.00;;
26337;SDS011;14050;50.950;4.460;2023-04-28T19:43:18;22.40;;;13.97;;
26337;SDS011;14050;50.950;4.460;2023-04-28T19:48:18;24.57;;;16.40;;
26337;SDS011;14050;50.950;4.460;2023-04-28T19:53:18;23.38;;;16.60;;
26337;SDS011;14050;50.950;4.460;2023-04-28T19:58:19;24.33;;;18.23;;
26337;SDS011;14050;50.950;4.460;2023-04-28T20:03:19;25.85;;;17.98;;
26337;SDS011;14050;50.950;4.460;2023-04-28T20:08:20;24.63;;;18.17;;
26337;SDS011;14050;50.950;4.460;2023-04-28T20:13:23;28.45;;;18.90;;
26337;SDS011;14050;50.950;4.460;2023-04-28T20:18:23;26.83;;;19.25;;
26337;SDS011;14050;50.950;4.460;2023-04-28T20:23:23;31.48;;;20.35;;
26337;SDS011;14050;50.950;4.460;2023-04-28T20:28:24;33.65;;;21.23;;
26337;SDS011;14050;50.950;4.460;2023-04-28T20:33:24;29.65;;;20.38;;
26337;SDS011;14050;50.950;4.460;2023-04-28T20:38:24;30.58;;;21.05;;
26337;SDS011;14050;50.950;4.460;2023-04-28T20:43:25;33.45;;;20.58;;
26337;SDS011;14050;50.950;4.460;2023-04-28T20:48:26;32.35;;;20.08;;
26337;SDS011;14050;50.950;4.460;2023-04-28T20:53:26;33.47;;;21.23;;
26337;SDS011;14050;50.950;4.460;2023-04-28T20:58:27;31.30;;;21.13;;
26337;SDS011;14050;50.950;4.460;2023-04-28T21:03:28;34.90;;;22.30;;
26337;SDS011;14050;50.950;4.460;2023-04-28T21:08:28;36.33;;;23.27;;
26337;SDS011;14050;50.950;4.460;2023-04-28T21:13:29;34.10;;;23.42;;
26337;SDS011;14050;50.950;4.460;2023-04-28T21:18:30;41.43;;;22.90;;
26337;SDS011;14050;50.950;4.460;2023-04-28T21:23:30;34.15;;;23.73;;
26337;SDS011;14050;50.950;4.460;2023-04-28T21:28:31;37.50;;;24.33;;
26337;SDS011;14050;50.950;4.460;2023-04-28T21:33:33;41.03;;;26.42;;
26337;SDS011;14050;50.950;4.460;2023-04-28T21:38:34;48.92;;;28.50;;
26337;SDS011;14050;50.950;4.460;2023-04-28T21:43:36;59.55;;;32.00;;
26337;SDS011;14050;50.950;4.460;2023-04-28T21:48:36;52.70;;;30.92;;
26337;SDS011;14050;50.950;4.460;2023-04-28T21:53:37;48.17;;;29.00;;
26337;SDS011;14050;50.950;4.460;2023-04-28T21:58:37;50.43;;;28.93;;
26337;SDS011;14050;50.950;4.460;2023-04-28T22:03:38;46.17;;;27.40;;
26337;SDS011;14050;50.950;4.460;2023-04-28T22:08:39;46.75;;;28.30;;
26337;SDS011;14050;50.950;4.460;2023-04-28T22:13:39;44.47;;;25.65;;
26337;SDS011;14050;50.950;4.460;2023-04-28T22:18:40;42.10;;;27.43;;
26337;SDS011;14050;50.950;4.460;2023-04-28T22:23:40;40.70;;;26.80;;
26337;SDS011;14050;50.950;4.460;2023-04-28T22:28:40;41.63;;;26.70;;
26337;SDS011;14050;50.950;4.460;2023-04-28T22:33:41;42.13;;;27.83;;
26337;SDS011;14050;50.950;4.460;2023-04-28T22:38:41;40.90;;;27.35;;
26337;SDS011;14050;50.950;4.460;2023-04-28T22:43:41;39.20;;;26.90;;
26337;SDS011;14050;50.950;4.460;2023-04-28T22:48:42;43.33;;;28.15;;
26337;SDS011;14050;50.950;4.460;2023-04-28T22:53:42;43.33;;;28.85;;
26337;SDS011;14050;50.950;4.460;2023-04-28T22:58:43;39.75;;;27.63;;
26337;SDS011;14050;50.950;4.460;2023-04-28T23:03:43;41.47;;;28.50;;
26337;SDS011;14050;50.950;4.460;2023-04-28T23:08:43;48.28;;;31.50;;
26337;SDS011;14050;50.950;4.460;2023-04-28T23:13:44;54.63;;;31.83;;
26337;SDS011;14050;50.950;4.460;2023-04-28T23:18:44;62.53;;;35.92;;
26337;SDS011;14050;50.950;4.460;2023-04-28T23:23:45;60.90;;;34.33;;
26337;SDS011;14050;50.950;4.460;2023-04-28T23:28:45;57.17;;;33.43;;
26337;SDS011;14050;50.950;4.460;2023-04-28T23:33:45;67.57;;;37.93;;
26337;SDS011;14050;50.950;4.460;2023-04-28T23:38:46;70.77;;;39.97;;
26337;SDS011;14050;50.950;4.460;2023-04-28T23:43:46;69.90;;;39.20;;
26337;SDS011;14050;50.950;4.460;2023-04-28T23:48:47;71.00;;;39.80;;
26337;SDS011;14050;50.950;4.460;2023-04-28T23:53:47;68.85;;;40.45;;
26337;SDS011;14050;50.950;4.460;2023-04-28T23:58:47;64.23;;;37.63;;
